Time;durP1;ratioP1;P1;durP2;ratioP2;P2;SDS_P1;SDS_P2;PMS_P1;PMS_P2;Temp;Humidity;BMP_temperature;BMP_pressure;BME280_temperature;BME280_humidity;BME280_pressure;Samples;Min_cycle;Max_cycle;Signal;HPM_P1;HPM_P2
2022/10/05 00:45:41;;;;;;;;;;;14.50;99.90;;;;;;6096534;23;20325;-76
2022/10/05 01:16:02;;;;;;;;;;;;;;;;;;;;;
2022/10/05 01:37:23;;;;;;;;;;;14.40;99.90;;;;;;6155104;23;19911;-75
2022/10/05 02:01:10;;;;;;;;;;;14.30;99.90;;;;;;5953738;24;19967;-76
2022/10/05 03:08:53;;;;;;;;;;;14.50;99.90;;;;;;6145407;23;20042;-76
2022/10/05 03:25:49;;;;;;;;;;;14.50;99.90;;;;;;5870748;24;19916;-75
2022/10/05 03:42:13;;;;;;;;;;;14.60;99.90;;;;;;5901548;24;19967;-76
2022/10/05 04:22:53;;;;;;;;;;;14.50;99.90;;;;;;5841320;24;19942;-76
2022/10/05 04:33:56;;;;;;;;;;;;;;;;;;;;;
2022/10/05 04:44:17;;;;;;;;;;;;;;;;;;;;;
2022/10/05 05:12:25;;;;;;;;;;;14.50;99.90;;;;;;6043114;23;19977;-76
2022/10/05 06:12:23;;;;;;;;;;;14.40;99.90;;;;;;6216977;23;19926;-76
2022/10/05 06:15:21;;;;;;;;;;;14.50;99.90;;;;;;6146748;23;19975;-75
2022/10/05 06:22:01;;;;;;;;;;;14.30;99.90;;;;;;6071678;23;19948;-74
2022/10/05 06:31:17;;;;;;;;;;;14.50;99.90;;;;;;6044072;23;19917;-76
2022/10/05 06:37:53;;;;;;;;;;;14.60;99.90;;;;;;6094018;23;19920;-75
2022/10/05 06:47:57;;;;;;;;;;;14.60;99.90;;;;;;5925895;24;19959;-74
2022/10/05 07:26:53;;;;;;;;;;;;;;;;;;;;;
2022/10/05 07:41:55;;;;;;;;;;;15.10;99.90;;;;;;6268593;22;19919;-72
2022/10/05 07:44:22;;;;;;;;;;;15.20;99.90;;;;;;6279310;22;19914;-74
2022/10/05 07:50:39;;;;;;;;;;;15.30;99.90;;;;;;6308724;22;19972;-72
2022/10/05 08:04:11;;;;;;;;;;;15.50;99.90;;;;;;6220710;22;20211;-73
2022/10/05 08:07:16;;;;;;;;;;;15.40;99.90;;;;;;6250290;22;19922;-73
2022/10/05 08:09:50;;;;;;;;;;;15.40;99.90;;;;;;6223840;22;19951;-76
2022/10/05 08:15:59;;;;;;;;;;;15.50;99.90;;;;;;6275567;22;19911;-80
2022/10/05 09:49:12;;;;;;;;;;;17.60;99.90;;;;;;5987210;23;19941;-77
2022/10/05 09:55:24;;;;;;;;;;;17.60;99.90;;;;;;6215039;23;19910;-73
2022/10/05 09:58:03;;;;;;;;;;;17.50;99.90;;;;;;6189235;23;19911;-77
2022/10/05 10:00:31;;;;;;;;;;;17.50;99.90;;;;;;6188885;23;20315;-73
2022/10/05 10:03:12;;;;;;;;;;;17.50;99.90;;;;;;6237845;23;19912;-74
2022/10/05 10:05:47;;;;;;;;;;;17.40;99.90;;;;;;6214106;23;20207;-75
2022/10/05 10:11:11;;;;;;;;;;;17.40;99.90;;;;;;6213968;23;19966;-72
2022/10/05 10:14:13;;;;;;;;;;;17.20;99.90;;;;;;6189247;23;20234;-75
2022/10/05 10:16:59;;;;;;;;;;;17.20;99.90;;;;;;6212188;23;19922;-74
2022/10/05 10:19:30;;;;;;;;;;;17.20;99.90;;;;;;6244580;23;19918;-76
2022/10/05 10:22:25;;;;;;;;;;;17.20;99.90;;;;;;6219824;23;20222;-74
2022/10/05 10:55:42;;;;;;;;;;;16.90;99.90;;;;;;6095293;23;19915;-80
2022/10/05 10:58:50;;;;;;;;;;;16.80;99.90;;;;;;6009216;23;19922;-78
2022/10/05 11:05:27;;;;;;;;;;;16.90;99.90;;;;;;6093391;23;20391;-73
2022/10/05 11:15:01;;;;;;;;;;;16.90;99.90;;;;;;6088859;23;19948;-82
2022/10/05 11:17:33;;;;;;;;;;;16.90;99.90;;;;;;6096874;23;19916;-71
2022/10/05 11:23:36;;;;;;;;;;;16.80;99.90;;;;;;6213223;22;19947;-74
2022/10/05 11:26:45;;;;;;;;;;;;;;;;;;;;;
2022/10/05 11:29:50;;;;;;;;;;;16.70;99.90;;;;;;6248943;22;19998;-74
2022/10/05 11:32:59;;;;;;;;;;;;;;;;;;;;;
2022/10/05 11:36:09;;;;;;;;;;;16.50;99.90;;;;;;6276680;22;19911;-74
2022/10/05 11:39:29;;;;;;;;;;;16.50;99.90;;;;;;6255542;22;19964;-73
2022/10/05 11:42:33;;;;;;;;;;;16.50;99.90;;;;;;6191562;23;19912;-75
2022/10/05 11:45:49;;;;;;;;;;;16.50;99.90;;;;;;6223650;22;20225;-74
2022/10/05 11:48:59;;;;;;;;;;;16.40;99.90;;;;;;6246109;22;19915;-75
2022/10/05 12:08:55;;;;;;;;;;;;;;;;;;;;;
2022/10/05 12:11:42;;;;;;;;;;;16.50;99.90;;;;;;6248820;22;19946;-74
2022/10/05 12:18:07;;;;;;;;;;;16.40;99.90;;;;;;6273910;22;19957;-74
2022/10/05 12:21:37;;;;;;;;;;;16.40;99.90;;;;;;6213263;23;20314;-74
2022/10/05 12:24:17;;;;;;;;;;;16.60;99.90;;;;;;6044692;23;19920;-74
2022/10/05 12:33:51;;;;;;;;;;;;;;;;;;;;;
2022/10/05 12:37:14;;;;;;;;;;;;;;;;;;;;;
2022/10/05 12:40:13;;;;;;;;;;;16.40;99.90;;;;;;6009902;23;19926;-74
2022/10/05 12:42:59;;;;;;;;;;;16.50;99.90;;;;;;5985278;23;20334;-74
2022/10/05 12:48:43;;;;;;;;;;;16.50;99.90;;;;;;6096123;23;20333;-73
2022/10/05 12:54:59;;;;;;;;;;;16.60;99.90;;;;;;6096492;23;19918;-73
2022/10/05 12:57:50;;;;;;;;;;;16.60;99.90;;;;;;6095821;23;19913;-75
2022/10/05 13:03:40;;;;;;;;;;;16.70;99.90;;;;;;6099803;23;20241;-76
2022/10/05 13:06:50;;;;;;;;;;;16.90;99.90;;;;;;6087727;23;20316;-76
2022/10/05 13:09:37;;;;;;;;;;;16.90;99.90;;;;;;6133806;23;19982;-75
2022/10/05 13:12:41;;;;;;;;;;;17.00;99.90;;;;;;6251626;22;20336;-75
2022/10/05 13:15:46;;;;;;;;;;;17.00;99.90;;;;;;6278891;22;20297;-75
2022/10/05 13:24:37;;;;;;;;;;;17.40;99.90;;;;;;6232825;23;19991;-75
2022/10/05 13:27:17;;;;;;;;;;;17.20;99.90;;;;;;6218917;23;20001;-76
2022/10/05 14:04:48;;;;;;;;;;;;;;;;;;;;;
2022/10/05 14:07:23;;;;;;;;;;;17.20;99.90;;;;;;6219980;23;19962;-74
2022/10/05 14:09:49;;;;;;;;;;;17.00;99.90;;;;;;6222794;23;19965;-79
2022/10/05 14:12:22;;;;;;;;;;;17.00;99.90;;;;;;6197766;23;19918;-79
2022/10/05 14:15:19;;;;;;;;;;;16.90;99.90;;;;;;6197737;22;19961;-77
2022/10/05 14:18:19;;;;;;;;;;;16.90;99.90;;;;;;6195841;23;19915;-76
2022/10/05 14:21:03;;;;;;;;;;;16.80;99.90;;;;;;6220580;23;19912;-81
2022/10/05 14:23:29;;;;;;;;;;;16.70;99.90;;;;;;6220656;23;19911;-76
2022/10/05 14:26:18;;;;;;;;;;;16.70;99.90;;;;;;6196305;23;19919;-80
2022/10/05 14:28:59;;;;;;;;;;;16.60;99.90;;;;;;6196390;23;20215;-79
2022/10/05 14:31:58;;;;;;;;;;;16.60;99.90;;;;;;6265254;23;19938;-77
2022/10/05 15:32:11;;;;;;;;;;;;;;;;;;;;;
2022/10/05 15:41:44;;;;;;;;;;;16.60;99.90;;;;;;6124220;23;19912;-73
2022/10/05 18:50:00;;;;;;;;;;;14.70;99.90;;;;;;6279583;22;20229;-77
2022/10/05 18:52:35;;;;;;;;;;;14.50;99.90;;;;;;6277753;22;19919;-81
2022/10/05 18:55:19;;;;;;;;;;;14.40;99.90;;;;;;6225431;22;19951;-81
2022/10/05 18:57:54;;;;;;;;;;;14.30;99.90;;;;;;6224778;22;20310;-83
2022/10/05 19:00:23;;;;;;;;;;;14.20;99.90;;;;;;6251285;22;19911;-79
2022/10/05 19:02:53;;;;;;;;;;;14.20;99.90;;;;;;6251181;22;20621;-79
2022/10/05 19:05:31;;;;;;;;;;;14.10;99.90;;;;;;6225458;22;19947;-75
2022/10/05 19:08:07;;;;;;;;;;;14.10;99.90;;;;;;6251354;22;19911;-79
2022/10/05 19:10:51;;;;;;;;;;;14.00;99.90;;;;;;6226606;22;19995;-78
2022/10/05 19:13:36;;;;;;;;;;;14.10;99.90;;;;;;6227380;22;19911;-78
2022/10/05 19:16:25;;;;;;;;;;;14.10;99.90;;;;;;6226283;22;19975;-79
2022/10/05 19:19:28;;;;;;;;;;;14.10;99.90;;;;;;6252110;22;19957;-75
2022/10/05 19:22:04;;;;;;;;;;;14.00;99.90;;;;;;6224620;22;19989;-76
2022/10/05 19:24:34;;;;;;;;;;;14.00;99.90;;;;;;6250003;22;20384;-75
2022/10/05 19:27:10;;;;;;;;;;;14.00;99.90;;;;;;6276443;22;20311;-78
2022/10/05 19:29:43;;;;;;;;;;;14.00;99.90;;;;;;6224576;22;20310;-74
2022/10/05 19:32:27;;;;;;;;;;;14.00;99.90;;;;;;6249536;22;19915;-71
2022/10/05 19:35:12;;;;;;;;;;;14.00;99.90;;;;;;6224517;22;20233;-81
2022/10/05 19:37:44;;;;;;;;;;;14.00;99.90;;;;;;6249755;22;19923;-78
2022/10/05 19:40:21;;;;;;;;;;;14.00;99.90;;;;;;6224711;22;19922;-74
2022/10/05 19:43:05;;;;;;;;;;;14.00;99.90;;;;;;6224983;22;20310;-76
2022/10/05 19:45:35;;;;;;;;;;;14.00;99.90;;;;;;6224574;22;19926;-79
2022/10/05 19:48:23;;;;;;;;;;;14.00;99.90;;;;;;6224355;22;19922;-77
2022/10/05 19:50:59;;;;;;;;;;;14.00;99.90;;;;;;6224914;22;19911;-77
2022/10/05 19:53:35;;;;;;;;;;;14.00;99.90;;;;;;6224856;22;19911;-74
2022/10/05 19:56:19;;;;;;;;;;;14.00;99.90;;;;;;6224283;22;20361;-78
2022/10/05 19:59:07;;;;;;;;;;;14.00;99.90;;;;;;6224815;22;19957;-79
2022/10/05 20:02:08;;;;;;;;;;;14.00;99.90;;;;;;6217116;22;19926;-79
2022/10/05 20:04:50;;;;;;;;;;;14.00;99.90;;;;;;6252171;22;20295;-77
2022/10/05 20:07:31;;;;;;;;;;;14.00;99.90;;;;;;6250514;22;19965;-74
2022/10/05 20:10:18;;;;;;;;;;;13.90;99.90;;;;;;6253225;22;19915;-76
2022/10/05 20:12:57;;;;;;;;;;;13.90;99.90;;;;;;6234108;22;19945;-77
2022/10/05 20:21:36;;;;;;;;;;;13.90;99.90;;;;;;6278424;22;19903;-79
2022/10/05 20:24:15;;;;;;;;;;;13.90;99.90;;;;;;6254337;22;19926;-78
2022/10/05 20:27:15;;;;;;;;;;;;;;;;;;;;;
2022/10/05 20:33:00;;;;;;;;;;;13.90;99.90;;;;;;6228562;22;20352;-77
2022/10/05 20:35:29;;;;;;;;;;;13.90;99.90;;;;;;6233572;22;19964;-73
2022/10/05 20:37:58;;;;;;;;;;;13.90;99.90;;;;;;6224420;22;19911;-73
2022/10/05 20:40:26;;;;;;;;;;;13.90;99.90;;;;;;6248979;22;19918;-71
2022/10/05 20:42:55;;;;;;;;;;;13.80;99.90;;;;;;6224574;22;19978;-73
2022/10/05 20:45:21;;;;;;;;;;;13.80;99.90;;;;;;6276128;22;19915;-73
2022/10/05 20:47:49;;;;;;;;;;;13.80;99.90;;;;;;6224332;22;19915;-72
2022/10/05 20:50:15;;;;;;;;;;;13.80;99.90;;;;;;6249631;22;19941;-73
2022/10/05 20:52:40;;;;;;;;;;;13.80;99.90;;;;;;6224678;22;19916;-74
2022/10/05 20:55:07;;;;;;;;;;;13.90;99.90;;;;;;6225901;22;19985;-73
2022/10/05 20:57:33;;;;;;;;;;;13.80;99.90;;;;;;6250859;22;19911;-73
2022/10/05 20:59:59;;;;;;;;;;;13.90;99.90;;;;;;6251449;22;20194;-74
2022/10/05 21:02:24;;;;;;;;;;;13.90;99.90;;;;;;6226072;22;19911;-73
2022/10/05 21:04:52;;;;;;;;;;;13.90;99.90;;;;;;6251233;22;19915;-74
2022/10/05 21:07:19;;;;;;;;;;;13.90;99.90;;;;;;6251546;22;19911;-75
2022/10/05 21:09:45;;;;;;;;;;;13.80;99.90;;;;;;6251532;22;19920;-74
2022/10/05 21:12:11;;;;;;;;;;;13.80;99.90;;;;;;6225794;22;20281;-75
2022/10/05 21:14:37;;;;;;;;;;;13.70;99.90;;;;;;6225793;22;19915;-75
2022/10/05 21:17:23;;;;;;;;;;;13.70;99.90;;;;;;6225979;22;19915;-76
2022/10/05 21:19:49;;;;;;;;;;;13.60;99.90;;;;;;6250666;22;19911;-73
2022/10/05 21:22:22;;;;;;;;;;;13.60;99.90;;;;;;6251652;22;19911;-73
2022/10/05 21:24:47;;;;;;;;;;;13.50;99.90;;;;;;6225975;22;19957;-73
2022/10/05 21:27:13;;;;;;;;;;;13.50;99.90;;;;;;6226293;22;19919;-72
2022/10/05 21:29:43;;;;;;;;;;;13.50;99.90;;;;;;6225984;22;19923;-73
2022/10/05 21:32:10;;;;;;;;;;;13.40;99.90;;;;;;6226075;22;19911;-71
2022/10/05 21:34:36;;;;;;;;;;;13.30;99.90;;;;;;6226288;22;19915;-73
2022/10/05 21:37:02;;;;;;;;;;;13.20;99.90;;;;;;6251093;22;19922;-73
2022/10/05 21:39:27;;;;;;;;;;;13.20;99.90;;;;;;6251700;22;19911;-73
2022/10/05 21:41:53;;;;;;;;;;;13.20;99.90;;;;;;6251595;22;19916;-73
2022/10/05 21:44:19;;;;;;;;;;;13.30;99.90;;;;;;6226015;22;20318;-75
2022/10/05 21:46:45;;;;;;;;;;;13.20;99.90;;;;;;6277923;22;19919;-73
2022/10/05 21:49:11;;;;;;;;;;;13.20;99.90;;;;;;6251452;22;19924;-72
2022/10/05 21:51:36;;;;;;;;;;;13.10;99.90;;;;;;6226189;22;19915;-73
2022/10/05 21:54:06;;;;;;;;;;;13.10;99.90;;;;;;6251589;22;19927;-74
2022/10/05 21:56:34;;;;;;;;;;;13.00;99.90;;;;;;6251156;22;20306;-74
2022/10/05 21:59:00;;;;;;;;;;;13.00;99.90;;;;;;6225932;22;19922;-73
2022/10/05 22:01:27;;;;;;;;;;;13.00;99.90;;;;;;6251388;22;20225;-74
2022/10/05 22:03:53;;;;;;;;;;;13.00;99.90;;;;;;6225771;22;20324;-74
2022/10/05 22:06:19;;;;;;;;;;;12.90;99.90;;;;;;6225857;22;19982;-74
2022/10/05 22:08:44;;;;;;;;;;;13.00;99.90;;;;;;6278236;22;19915;-74
2022/10/05 22:11:11;;;;;;;;;;;12.90;99.90;;;;;;6251150;22;19919;-73
2022/10/05 22:13:42;;;;;;;;;;;12.90;99.90;;;;;;6225579;22;19915;-74
2022/10/05 22:16:08;;;;;;;;;;;12.90;99.90;;;;;;6225375;22;19940;-74
2022/10/05 22:18:34;;;;;;;;;;;12.90;99.90;;;;;;6225590;22;20342;-72
2022/10/05 22:21:00;;;;;;;;;;;12.90;99.90;;;;;;6225424;22;19919;-75
2022/10/05 22:23:25;;;;;;;;;;;13.00;99.90;;;;;;6225970;22;20031;-73
2022/10/05 22:25:51;;;;;;;;;;;13.00;99.90;;;;;;6200214;22;19911;-75
2022/10/05 22:28:17;;;;;;;;;;;13.10;99.90;;;;;;6250752;22;19923;-73
2022/10/05 22:30:43;;;;;;;;;;;13.10;99.90;;;;;;6250972;22;19915;-72
2022/10/05 22:33:09;;;;;;;;;;;13.00;99.90;;;;;;6251006;22;19919;-73
2022/10/05 22:35:35;;;;;;;;;;;13.10;99.90;;;;;;6250715;22;19921;-74
2022/10/05 22:38:01;;;;;;;;;;;13.10;99.90;;;;;;6278100;22;20233;-73
2022/10/05 22:40:27;;;;;;;;;;;13.00;99.90;;;;;;6225642;22;19922;-73
2022/10/05 22:42:52;;;;;;;;;;;13.00;99.90;;;;;;6250937;22;19915;-73
2022/10/05 22:45:18;;;;;;;;;;;12.90;99.90;;;;;;6225080;22;19968;-73
2022/10/05 22:47:44;;;;;;;;;;;12.90;99.90;;;;;;6225009;22;19961;-73
2022/10/05 22:50:12;;;;;;;;;;;12.90;99.90;;;;;;6225674;22;19923;-73
2022/10/05 22:52:38;;;;;;;;;;;12.90;99.90;;;;;;6225141;22;19915;-73
2022/10/05 22:55:03;;;;;;;;;;;12.90;99.90;;;;;;6225114;22;19963;-75
2022/10/05 22:57:36;;;;;;;;;;;12.90;99.90;;;;;;6250670;22;19911;-73
2022/10/05 23:00:01;;;;;;;;;;;12.90;99.90;;;;;;6250948;22;19987;-73
2022/10/05 23:02:27;;;;;;;;;;;12.80;99.90;;;;;;6250406;22;20302;-73
2022/10/05 23:04:53;;;;;;;;;;;12.80;99.90;;;;;;6277792;22;19911;-73
2022/10/05 23:07:18;;;;;;;;;;;12.80;99.90;;;;;;6250615;22;19915;-73
2022/10/05 23:09:44;;;;;;;;;;;12.80;99.90;;;;;;6224993;22;19922;-74
2022/10/05 23:12:12;;;;;;;;;;;12.80;99.90;;;;;;6225837;22;19998;-72
2022/10/05 23:14:37;;;;;;;;;;;12.80;99.90;;;;;;6250263;22;19911;-74
2022/10/05 23:17:03;;;;;;;;;;;13.00;99.90;;;;;;6224526;22;19976;-72
2022/10/05 23:19:29;;;;;;;;;;;12.80;99.90;;;;;;6225416;22;20053;-74
2022/10/05 23:21:54;;;;;;;;;;;12.80;99.90;;;;;;6225284;22;20393;-74
2022/10/05 23:24:20;;;;;;;;;;;12.80;99.90;;;;;;6225415;22;19919;-73
2022/10/05 23:26:45;;;;;;;;;;;12.80;99.90;;;;;;6200177;22;19960;-75
2022/10/05 23:29:13;;;;;;;;;;;12.90;99.90;;;;;;6225394;22;19916;-73
2022/10/05 23:31:39;;;;;;;;;;;12.80;99.90;;;;;;6225178;22;19942;-72
2022/10/05 23:34:05;;;;;;;;;;;12.80;99.90;;;;;;6250474;22;19969;-75
2022/10/05 23:36:31;;;;;;;;;;;12.80;99.90;;;;;;6250226;22;19923;-73
2022/10/05 23:38:56;;;;;;;;;;;12.90;99.90;;;;;;6250416;22;20217;-73
2022/10/05 23:41:22;;;;;;;;;;;12.80;99.90;;;;;;6225195;22;19915;-73
2022/10/05 23:43:48;;;;;;;;;;;12.80;99.90;;;;;;6199922;22;19915;-73
2022/10/05 23:46:14;;;;;;;;;;;12.80;99.90;;;;;;6223635;22;19916;-72
2022/10/05 23:48:39;;;;;;;;;;;12.80;99.90;;;;;;6249183;22;19922;-73
2022/10/05 23:51:06;;;;;;;;;;;12.80;99.90;;;;;;6224061;22;20315;-73
2022/10/05 23:53:32;;;;;;;;;;;12.80;99.90;;;;;;6224001;22;19922;-74
2022/10/05 23:55:57;;;;;;;;;;;12.80;99.90;;;;;;6223635;22;20318;-74
2022/10/05 23:58:23;;;;;;;;;;;12.80;99.90;;;;;;6249077;22;20314;-74
